sensor_id;sensor_type;location;lat;lon;timestamp;P1;durP1;ratioP1;P2;durP2;ratioP2
5752;SDS011;2901;42.140;24.760;2022-12-10T00:01:21;38.60;;;19.53;;
5752;SDS011;2901;42.140;24.760;2022-12-10T00:03:47;38.80;;;19.80;;
5752;SDS011;2901;42.140;24.760;2022-12-10T00:06:14;40.90;;;20.43;;
5752;SDS011;2901;42.140;24.760;2022-12-10T00:08:42;44.43;;;21.50;;
5752;SDS011;2901;42.140;24.760;2022-12-10T00:11:08;43.13;;;21.43;;
5752;SDS011;2901;42.140;24.760;2022-12-10T00:13:35;45.43;;;21.53;;
5752;SDS011;2901;42.140;24.760;2022-12-10T00:16:02;45.83;;;20.83;;
5752;SDS011;2901;42.140;24.760;2022-12-10T00:18:29;44.97;;;21.47;;
5752;SDS011;2901;42.140;24.760;2022-12-10T00:20:54;41.60;;;21.27;;
5752;SDS011;2901;42.140;24.760;2022-12-10T00:23:20;44.80;;;19.80;;
5752;SDS011;2901;42.140;24.760;2022-12-10T00:25:45;48.57;;;21.87;;
5752;SDS011;2901;42.140;24.760;2022-12-10T00:28:11;48.50;;;20.97;;
5752;SDS011;2901;42.140;24.760;2022-12-10T00:30:37;49.50;;;21.03;;
5752;SDS011;2901;42.140;24.760;2022-12-10T00:33:02;49.20;;;20.40;;
5752;SDS011;2901;42.140;24.760;2022-12-10T00:35:28;52.27;;;21.57;;
5752;SDS011;2901;42.140;24.760;2022-12-10T00:37:53;45.47;;;20.83;;
5752;SDS011;2901;42.140;24.760;2022-12-10T00:40:18;51.90;;;22.53;;
5752;SDS011;2901;42.140;24.760;2022-12-10T00:42:44;52.23;;;22.13;;
5752;SDS011;2901;42.140;24.760;2022-12-10T00:45:09;45.33;;;21.53;;
5752;SDS011;2901;42.140;24.760;2022-12-10T00:47:35;53.23;;;22.97;;
5752;SDS011;2901;42.140;24.760;2022-12-10T00:50:00;53.97;;;23.67;;
5752;SDS011;2901;42.140;24.760;2022-12-10T00:52:26;48.53;;;22.20;;
5752;SDS011;2901;42.140;24.760;2022-12-10T00:54:51;53.17;;;23.80;;
5752;SDS011;2901;42.140;24.760;2022-12-10T00:57:17;56.13;;;23.30;;
5752;SDS011;2901;42.140;24.760;2022-12-10T00:59:42;49.23;;;21.50;;
5752;SDS011;2901;42.140;24.760;2022-12-10T01:02:07;54.50;;;26.10;;
5752;SDS011;2901;42.140;24.760;2022-12-10T01:04:33;59.67;;;24.90;;
5752;SDS011;2901;42.140;24.760;2022-12-10T01:06:58;58.90;;;24.63;;
5752;SDS011;2901;42.140;24.760;2022-12-10T01:09:25;63.87;;;24.90;;
5752;SDS011;2901;42.140;24.760;2022-12-10T01:11:53;79.50;;;27.40;;
5752;SDS011;2901;42.140;24.760;2022-12-10T01:14:23;59.53;;;25.30;;
5752;SDS011;2901;42.140;24.760;2022-12-10T01:16:55;63.83;;;24.93;;
5752;SDS011;2901;42.140;24.760;2022-12-10T01:19:22;71.73;;;25.60;;
5752;SDS011;2901;42.140;24.760;2022-12-10T01:21:51;56.53;;;26.07;;
5752;SDS011;2901;42.140;24.760;2022-12-10T01:24:18;71.97;;;28.07;;
5752;SDS011;2901;42.140;24.760;2022-12-10T01:26:43;63.90;;;25.80;;
5752;SDS011;2901;42.140;24.760;2022-12-10T01:29:09;67.05;;;26.63;;
5752;SDS011;2901;42.140;24.760;2022-12-10T01:31:36;72.82;;;29.05;;
5752;SDS011;2901;42.140;24.760;2022-12-10T01:34:03;68.67;;;27.57;;
5752;SDS011;2901;42.140;24.760;2022-12-10T01:36:34;77.03;;;28.50;;
5752;SDS011;2901;42.140;24.760;2022-12-10T01:39:02;72.97;;;29.47;;
5752;SDS011;2901;42.140;24.760;2022-12-10T01:41:31;83.03;;;28.53;;
5752;SDS011;2901;42.140;24.760;2022-12-10T01:44:57;81.60;;;31.77;;
5752;SDS011;2901;42.140;24.760;2022-12-10T01:46:51;74.67;;;28.73;;
5752;SDS011;2901;42.140;24.760;2022-12-10T01:49:24;76.33;;;30.73;;
5752;SDS011;2901;42.140;24.760;2022-12-10T01:51:56;82.55;;;31.10;;
5752;SDS011;2901;42.140;24.760;2022-12-10T01:54:26;89.53;;;33.03;;
5752;SDS011;2901;42.140;24.760;2022-12-10T01:59:26;82.43;;;31.40;;
5752;SDS011;2901;42.140;24.760;2022-12-10T02:01:56;80.83;;;32.10;;
5752;SDS011;2901;42.140;24.760;2022-12-10T02:04:28;84.47;;;32.87;;
5752;SDS011;2901;42.140;24.760;2022-12-10T02:14:29;92.30;;;37.23;;
5752;SDS011;2901;42.140;24.760;2022-12-10T02:16:59;89.73;;;35.40;;
5752;SDS011;2901;42.140;24.760;2022-12-10T02:22:12;89.67;;;35.97;;
5752;SDS011;2901;42.140;24.760;2022-12-10T02:24:39;88.87;;;34.27;;
5752;SDS011;2901;42.140;24.760;2022-12-10T02:27:16;88.23;;;35.93;;
5752;SDS011;2901;42.140;24.760;2022-12-10T02:29:48;96.43;;;36.67;;
5752;SDS011;2901;42.140;24.760;2022-12-10T02:32:18;89.40;;;35.73;;
5752;SDS011;2901;42.140;24.760;2022-12-10T02:34:48;82.57;;;36.57;;
5752;SDS011;2901;42.140;24.760;2022-12-10T02:37:22;89.03;;;35.77;;
5752;SDS011;2901;42.140;24.760;2022-12-10T02:39:53;77.33;;;33.90;;
5752;SDS011;2901;42.140;24.760;2022-12-10T02:42:21;78.13;;;32.93;;
5752;SDS011;2901;42.140;24.760;2022-12-10T02:44:51;78.40;;;33.63;;
5752;SDS011;2901;42.140;24.760;2022-12-10T02:47:18;78.33;;;31.70;;
5752;SDS011;2901;42.140;24.760;2022-12-10T02:49:45;74.63;;;31.57;;
5752;SDS011;2901;42.140;24.760;2022-12-10T02:52:14;79.03;;;32.50;;
5752;SDS011;2901;42.140;24.760;2022-12-10T02:54:43;73.83;;;30.70;;
5752;SDS011;2901;42.140;24.760;2022-12-10T03:00:07;68.10;;;30.27;;
5752;SDS011;2901;42.140;24.760;2022-12-10T03:05:13;59.37;;;28.17;;
5752;SDS011;2901;42.140;24.760;2022-12-10T03:07:58;58.10;;;28.63;;
5752;SDS011;2901;42.140;24.760;2022-12-10T03:12:58;60.23;;;29.53;;
5752;SDS011;2901;42.140;24.760;2022-12-10T03:15:26;51.77;;;26.70;;
5752;SDS011;2901;42.140;24.760;2022-12-10T03:17:54;57.33;;;29.83;;
5752;SDS011;2901;42.140;24.760;2022-12-10T03:20:22;64.93;;;29.27;;
5752;SDS011;2901;42.140;24.760;2022-12-10T03:22:49;58.20;;;29.50;;
5752;SDS011;2901;42.140;24.760;2022-12-10T03:25:19;60.87;;;28.87;;
5752;SDS011;2901;42.140;24.760;2022-12-10T03:27:48;61.87;;;29.73;;
5752;SDS011;2901;42.140;24.760;2022-12-10T03:30:16;63.33;;;31.20;;
5752;SDS011;2901;42.140;24.760;2022-12-10T03:32:42;59.23;;;28.83;;
5752;SDS011;2901;42.140;24.760;2022-12-10T03:35:09;66.87;;;29.67;;
5752;SDS011;2901;42.140;24.760;2022-12-10T03:37:37;67.33;;;29.40;;
5752;SDS011;2901;42.140;24.760;2022-12-10T03:40:03;73.90;;;31.90;;
5752;SDS011;2901;42.140;24.760;2022-12-10T03:42:31;67.30;;;29.07;;
5752;SDS011;2901;42.140;24.760;2022-12-10T03:44:56;71.60;;;29.43;;
5752;SDS011;2901;42.140;24.760;2022-12-10T03:47:21;66.73;;;29.47;;
5752;SDS011;2901;42.140;24.760;2022-12-10T03:49:48;76.20;;;29.97;;
5752;SDS011;2901;42.140;24.760;2022-12-10T03:52:14;66.80;;;29.33;;
5752;SDS011;2901;42.140;24.760;2022-12-10T03:54:39;67.07;;;29.53;;
5752;SDS011;2901;42.140;24.760;2022-12-10T03:57:04;72.43;;;30.30;;
5752;SDS011;2901;42.140;24.760;2022-12-10T03:59:30;74.57;;;29.30;;
5752;SDS011;2901;42.140;24.760;2022-12-10T04:01:55;67.50;;;30.33;;
5752;SDS011;2901;42.140;24.760;2022-12-10T04:04:21;72.60;;;28.37;;
5752;SDS011;2901;42.140;24.760;2022-12-10T04:06:46;68.63;;;28.27;;
5752;SDS011;2901;42.140;24.760;2022-12-10T04:09:12;70.17;;;30.57;;
5752;SDS011;2901;42.140;24.760;2022-12-10T04:11:39;65.63;;;27.93;;
5752;SDS011;2901;42.140;24.760;2022-12-10T04:14:05;65.00;;;29.97;;
5752;SDS011;2901;42.140;24.760;2022-12-10T04:16:49;63.27;;;26.93;;
5752;SDS011;2901;42.140;24.760;2022-12-10T04:19:15;65.53;;;29.03;;
5752;SDS011;2901;42.140;24.760;2022-12-10T04:21:42;64.13;;;28.03;;
5752;SDS011;2901;42.140;24.760;2022-12-10T04:24:28;66.43;;;27.57;;
5752;SDS011;2901;42.140;24.760;2022-12-10T04:27:19;76.00;;;29.20;;
5752;SDS011;2901;42.140;24.760;2022-12-10T04:29:51;63.30;;;26.77;;
5752;SDS011;2901;42.140;24.760;2022-12-10T04:32:18;60.97;;;25.40;;
5752;SDS011;2901;42.140;24.760;2022-12-10T04:34:44;63.80;;;25.53;;
5752;SDS011;2901;42.140;24.760;2022-12-10T04:37:09;58.70;;;23.70;;
5752;SDS011;2901;42.140;24.760;2022-12-10T04:39:38;57.23;;;24.50;;
5752;SDS011;2901;42.140;24.760;2022-12-10T04:42:05;58.90;;;24.67;;
5752;SDS011;2901;42.140;24.760;2022-12-10T04:44:31;55.40;;;24.03;;
5752;SDS011;2901;42.140;24.760;2022-12-10T04:46:56;51.40;;;22.67;;
5752;SDS011;2901;42.140;24.760;2022-12-10T04:49:22;60.60;;;24.30;;
5752;SDS011;2901;42.140;24.760;2022-12-10T04:51:48;52.97;;;24.93;;
5752;SDS011;2901;42.140;24.760;2022-12-10T04:54:14;50.57;;;22.93;;
5752;SDS011;2901;42.140;24.760;2022-12-10T04:56:39;44.23;;;23.13;;
5752;SDS011;2901;42.140;24.760;2022-12-10T04:59:06;47.73;;;21.70;;
5752;SDS011;2901;42.140;24.760;2022-12-10T05:01:32;49.67;;;22.23;;
5752;SDS011;2901;42.140;24.760;2022-12-10T05:03:58;54.77;;;23.00;;
5752;SDS011;2901;42.140;24.760;2022-12-10T05:06:28;46.53;;;21.97;;
5752;SDS011;2901;42.140;24.760;2022-12-10T05:08:54;45.50;;;21.93;;
5752;SDS011;2901;42.140;24.760;2022-12-10T05:11:22;53.27;;;22.70;;
5752;SDS011;2901;42.140;24.760;2022-12-10T05:13:49;41.67;;;20.73;;
5752;SDS011;2901;42.140;24.760;2022-12-10T05:16:15;40.73;;;20.47;;
5752;SDS011;2901;42.140;24.760;2022-12-10T05:18:42;43.97;;;22.47;;
5752;SDS011;2901;42.140;24.760;2022-12-10T05:21:12;49.83;;;22.47;;
5752;SDS011;2901;42.140;24.760;2022-12-10T05:23:39;49.47;;;20.20;;
5752;SDS011;2901;42.140;24.760;2022-12-10T05:26:11;36.00;;;18.73;;
5752;SDS011;2901;42.140;24.760;2022-12-10T05:28:44;46.80;;;21.63;;
5752;SDS011;2901;42.140;24.760;2022-12-10T05:31:13;41.63;;;20.53;;
5752;SDS011;2901;42.140;24.760;2022-12-10T05:33:40;43.87;;;20.93;;
5752;SDS011;2901;42.140;24.760;2022-12-10T05:36:06;42.90;;;20.23;;
5752;SDS011;2901;42.140;24.760;2022-12-10T05:38:32;46.67;;;21.73;;
5752;SDS011;2901;42.140;24.760;2022-12-10T05:41:02;36.03;;;18.83;;
5752;SDS011;2901;42.140;24.760;2022-12-10T05:43:29;43.87;;;20.13;;
5752;SDS011;2901;42.140;24.760;2022-12-10T05:45:58;36.10;;;18.83;;
5752;SDS011;2901;42.140;24.760;2022-12-10T05:48:25;44.43;;;20.40;;
5752;SDS011;2901;42.140;24.760;2022-12-10T05:50:50;45.23;;;20.67;;
5752;SDS011;2901;42.140;24.760;2022-12-10T05:53:16;47.13;;;19.97;;
5752;SDS011;2901;42.140;24.760;2022-12-10T05:55:43;57.73;;;21.43;;
5752;SDS011;2901;42.140;24.760;2022-12-10T05:58:08;47.23;;;21.03;;
5752;SDS011;2901;42.140;24.760;2022-12-10T06:00:34;49.63;;;21.63;;
5752;SDS011;2901;42.140;24.760;2022-12-10T06:02:59;46.10;;;21.03;;
5752;SDS011;2901;42.140;24.760;2022-12-10T06:05:24;47.40;;;21.07;;
5752;SDS011;2901;42.140;24.760;2022-12-10T06:07:50;51.40;;;21.43;;
5752;SDS011;2901;42.140;24.760;2022-12-10T06:10:15;44.20;;;20.67;;
5752;SDS011;2901;42.140;24.760;2022-12-10T06:12:40;46.70;;;20.50;;
5752;SDS011;2901;42.140;24.760;2022-12-10T06:15:06;44.07;;;20.47;;
5752;SDS011;2901;42.140;24.760;2022-12-10T06:17:32;40.33;;;19.80;;
5752;SDS011;2901;42.140;24.760;2022-12-10T06:19:57;44.57;;;19.80;;
5752;SDS011;2901;42.140;24.760;2022-12-10T06:22:23;50.57;;;22.23;;
5752;SDS011;2901;42.140;24.760;2022-12-10T06:24:48;52.87;;;19.93;;
5752;SDS011;2901;42.140;24.760;2022-12-10T06:27:13;40.40;;;20.43;;
5752;SDS011;2901;42.140;24.760;2022-12-10T06:29:39;41.97;;;20.43;;
5752;SDS011;2901;42.140;24.760;2022-12-10T06:32:05;43.43;;;20.63;;
5752;SDS011;2901;42.140;24.760;2022-12-10T06:34:30;49.07;;;21.57;;
5752;SDS011;2901;42.140;24.760;2022-12-10T06:36:56;47.20;;;20.53;;
5752;SDS011;2901;42.140;24.760;2022-12-10T06:39:21;38.93;;;19.70;;
5752;SDS011;2901;42.140;24.760;2022-12-10T06:41:46;45.07;;;21.70;;
5752;SDS011;2901;42.140;24.760;2022-12-10T06:44:12;43.75;;;21.25;;
5752;SDS011;2901;42.140;24.760;2022-12-10T06:46:39;34.63;;;18.67;;
5752;SDS011;2901;42.140;24.760;2022-12-10T06:49:05;39.23;;;18.87;;
5752;SDS011;2901;42.140;24.760;2022-12-10T06:51:31;41.03;;;21.60;;
5752;SDS011;2901;42.140;24.760;2022-12-10T06:53:56;40.17;;;18.93;;
5752;SDS011;2901;42.140;24.760;2022-12-10T06:56:22;40.60;;;18.33;;
5752;SDS011;2901;42.140;24.760;2022-12-10T06:58:47;40.23;;;19.67;;
5752;SDS011;2901;42.140;24.760;2022-12-10T07:01:20;36.10;;;19.40;;
5752;SDS011;2901;42.140;24.760;2022-12-10T07:03:50;39.40;;;20.57;;
5752;SDS011;2901;42.140;24.760;2022-12-10T07:06:17;41.47;;;19.30;;
5752;SDS011;2901;42.140;24.760;2022-12-10T07:08:43;36.13;;;19.20;;
5752;SDS011;2901;42.140;24.760;2022-12-10T07:11:10;38.80;;;18.03;;
5752;SDS011;2901;42.140;24.760;2022-12-10T07:13:37;40.03;;;19.97;;
5752;SDS011;2901;42.140;24.760;2022-12-10T07:16:11;48.30;;;19.67;;
5752;SDS011;2901;42.140;24.760;2022-12-10T07:18:37;43.33;;;19.17;;
5752;SDS011;2901;42.140;24.760;2022-12-10T07:21:12;39.87;;;19.03;;
5752;SDS011;2901;42.140;24.760;2022-12-10T07:23:42;36.13;;;19.27;;
5752;SDS011;2901;42.140;24.760;2022-12-10T07:26:07;40.83;;;19.03;;
5752;SDS011;2901;42.140;24.760;2022-12-10T07:28:33;42.57;;;19.57;;
5752;SDS011;2901;42.140;24.760;2022-12-10T07:31:02;42.17;;;19.07;;
5752;SDS011;2901;42.140;24.760;2022-12-10T07:33:31;39.80;;;19.87;;
5752;SDS011;2901;42.140;24.760;2022-12-10T07:35:57;29.13;;;18.00;;
5752;SDS011;2901;42.140;24.760;2022-12-10T07:38:23;29.57;;;16.97;;
5752;SDS011;2901;42.140;24.760;2022-12-10T07:40:49;37.07;;;18.80;;
5752;SDS011;2901;42.140;24.760;2022-12-10T07:43:15;34.57;;;18.83;;
5752;SDS011;2901;42.140;24.760;2022-12-10T07:45:41;32.15;;;18.20;;
5752;SDS011;2901;42.140;24.760;2022-12-10T07:48:06;35.23;;;18.80;;
5752;SDS011;2901;42.140;24.760;2022-12-10T07:50:32;37.47;;;20.37;;
5752;SDS011;2901;42.140;24.760;2022-12-10T07:52:57;30.08;;;20.20;;
5752;SDS011;2901;42.140;24.760;2022-12-10T07:55:23;41.45;;;20.98;;
5752;SDS011;2901;42.140;24.760;2022-12-10T07:57:48;36.67;;;18.53;;
5752;SDS011;2901;42.140;24.760;2022-12-10T08:00:14;40.53;;;19.60;;
5752;SDS011;2901;42.140;24.760;2022-12-10T08:02:39;40.03;;;20.98;;
5752;SDS011;2901;42.140;24.760;2022-12-10T08:05:05;44.55;;;21.13;;
5752;SDS011;2901;42.140;24.760;2022-12-10T08:07:31;44.72;;;22.73;;
5752;SDS011;2901;42.140;24.760;2022-12-10T08:09:57;38.78;;;21.90;;
5752;SDS011;2901;42.140;24.760;2022-12-10T08:12:23;46.65;;;22.23;;
5752;SDS011;2901;42.140;24.760;2022-12-10T08:14:48;38.63;;;23.08;;
5752;SDS011;2901;42.140;24.760;2022-12-10T08:17:14;45.10;;;22.20;;
5752;SDS011;2901;42.140;24.760;2022-12-10T08:19:39;55.23;;;23.23;;
5752;SDS011;2901;42.140;24.760;2022-12-10T08:22:05;44.78;;;23.92;;
5752;SDS011;2901;42.140;24.760;2022-12-10T08:24:30;52.83;;;23.17;;
5752;SDS011;2901;42.140;24.760;2022-12-10T08:26:56;51.25;;;24.98;;
5752;SDS011;2901;42.140;24.760;2022-12-10T08:29:21;47.75;;;23.55;;
5752;SDS011;2901;42.140;24.760;2022-12-10T08:31:46;56.53;;;25.52;;
5752;SDS011;2901;42.140;24.760;2022-12-10T08:34:13;47.50;;;22.80;;
5752;SDS011;2901;42.140;24.760;2022-12-10T08:36:40;44.38;;;23.65;;
5752;SDS011;2901;42.140;24.760;2022-12-10T08:39:06;51.05;;;24.27;;
5752;SDS011;2901;42.140;24.760;2022-12-10T08:41:31;50.95;;;23.77;;
5752;SDS011;2901;42.140;24.760;2022-12-10T08:43:57;51.97;;;24.88;;
5752;SDS011;2901;42.140;24.760;2022-12-10T08:46:22;51.40;;;25.52;;
5752;SDS011;2901;42.140;24.760;2022-12-10T08:48:50;45.72;;;23.08;;
5752;SDS011;2901;42.140;24.760;2022-12-10T08:51:16;46.88;;;24.13;;
5752;SDS011;2901;42.140;24.760;2022-12-10T08:53:43;47.78;;;25.35;;
5752;SDS011;2901;42.140;24.760;2022-12-10T08:56:09;43.75;;;23.75;;
5752;SDS011;2901;42.140;24.760;2022-12-10T08:58:35;46.92;;;24.42;;
5752;SDS011;2901;42.140;24.760;2022-12-10T09:01:06;52.63;;;25.35;;
5752;SDS011;2901;42.140;24.760;2022-12-10T09:03:36;48.13;;;24.45;;
5752;SDS011;2901;42.140;24.760;2022-12-10T09:06:03;41.83;;;24.20;;
5752;SDS011;2901;42.140;24.760;2022-12-10T09:08:30;49.63;;;25.23;;
5752;SDS011;2901;42.140;24.760;2022-12-10T09:10:56;41.85;;;23.17;;
5752;SDS011;2901;42.140;24.760;2022-12-10T09:13:24;27.85;;;17.33;;
5752;SDS011;2901;42.140;24.760;2022-12-10T09:15:51;37.45;;;19.75;;
5752;SDS011;2901;42.140;24.760;2022-12-10T09:18:18;38.47;;;20.75;;
5752;SDS011;2901;42.140;24.760;2022-12-10T09:20:44;41.10;;;21.58;;
5752;SDS011;2901;42.140;24.760;2022-12-10T09:23:11;34.63;;;20.08;;
5752;SDS011;2901;42.140;24.760;2022-12-10T09:25:57;28.67;;;17.83;;
5752;SDS011;2901;42.140;24.760;2022-12-10T09:28:23;30.75;;;18.80;;
5752;SDS011;2901;42.140;24.760;2022-12-10T09:31:09;36.00;;;20.75;;
5752;SDS011;2901;42.140;24.760;2022-12-10T09:33:37;39.22;;;21.10;;
5752;SDS011;2901;42.140;24.760;2022-12-10T09:36:03;30.98;;;19.20;;
5752;SDS011;2901;42.140;24.760;2022-12-10T09:38:36;31.80;;;17.98;;
5752;SDS011;2901;42.140;24.760;2022-12-10T09:47:36;29.80;;;18.10;;
5752;SDS011;2901;42.140;24.760;2022-12-10T09:50:29;32.83;;;17.83;;
5752;SDS011;2901;42.140;24.760;2022-12-10T09:52:59;27.92;;;18.00;;
5752;SDS011;2901;42.140;24.760;2022-12-10T09:55:37;23.00;;;17.73;;
5752;SDS011;2901;42.140;24.760;2022-12-10T09:58:05;33.35;;;18.95;;
5752;SDS011;2901;42.140;24.760;2022-12-10T10:00:38;34.35;;;17.98;;
5752;SDS011;2901;42.140;24.760;2022-12-10T10:03:06;24.40;;;15.50;;
5752;SDS011;2901;42.140;24.760;2022-12-10T10:05:48;24.23;;;15.02;;
5752;SDS011;2901;42.140;24.760;2022-12-10T10:11:26;25.23;;;16.25;;
5752;SDS011;2901;42.140;24.760;2022-12-10T10:16:44;26.38;;;16.80;;
5752;SDS011;2901;42.140;24.760;2022-12-10T10:19:15;26.98;;;16.45;;
5752;SDS011;2901;42.140;24.760;2022-12-10T10:21:47;53.83;;;19.70;;
5752;SDS011;2901;42.140;24.760;2022-12-10T10:24:18;59.00;;;20.80;;
5752;SDS011;2901;42.140;24.760;2022-12-10T10:26:48;26.63;;;17.15;;
5752;SDS011;2901;42.140;24.760;2022-12-10T10:29:18;25.85;;;17.63;;
5752;SDS011;2901;42.140;24.760;2022-12-10T10:31:46;24.63;;;16.67;;
5752;SDS011;2901;42.140;24.760;2022-12-10T10:34:18;22.88;;;15.98;;
5752;SDS011;2901;42.140;24.760;2022-12-10T10:36:45;26.40;;;17.63;;
5752;SDS011;2901;42.140;24.760;2022-12-10T10:41:43;26.30;;;17.05;;
5752;SDS011;2901;42.140;24.760;2022-12-10T10:44:18;28.25;;;16.75;;
5752;SDS011;2901;42.140;24.760;2022-12-10T10:46:46;35.95;;;18.52;;
5752;SDS011;2901;42.140;24.760;2022-12-10T10:49:14;26.17;;;17.77;;
5752;SDS011;2901;42.140;24.760;2022-12-10T10:51:52;36.55;;;19.15;;
5752;SDS011;2901;42.140;24.760;2022-12-10T10:54:39;29.63;;;17.50;;
5752;SDS011;2901;42.140;24.760;2022-12-10T10:57:28;28.10;;;17.67;;
5752;SDS011;2901;42.140;24.760;2022-12-10T11:00:04;35.03;;;19.23;;
5752;SDS011;2901;42.140;24.760;2022-12-10T11:02:30;40.15;;;20.95;;
5752;SDS011;2901;42.140;24.760;2022-12-10T11:05:05;30.20;;;18.90;;
5752;SDS011;2901;42.140;24.760;2022-12-10T11:07:43;33.28;;;18.23;;
5752;SDS011;2901;42.140;24.760;2022-12-10T11:10:21;62.80;;;20.25;;
5752;SDS011;2901;42.140;24.760;2022-12-10T11:13:05;27.17;;;18.20;;
5752;SDS011;2901;42.140;24.760;2022-12-10T11:15:38;34.05;;;19.38;;
5752;SDS011;2901;42.140;24.760;2022-12-10T11:23:43;33.63;;;19.48;;
5752;SDS011;2901;42.140;24.760;2022-12-10T11:34:41;44.88;;;21.05;;
5752;SDS011;2901;42.140;24.760;2022-12-10T11:54:46;50.92;;;22.33;;
5752;SDS011;2901;42.140;24.760;2022-12-10T12:00:00;50.47;;;21.67;;
5752;SDS011;2901;42.140;24.760;2022-12-10T12:03:06;57.83;;;24.13;;
5752;SDS011;2901;42.140;24.760;2022-12-10T12:14:19;56.10;;;25.05;;
5752;SDS011;2901;42.140;24.760;2022-12-10T12:17:02;51.70;;;27.17;;
5752;SDS011;2901;42.140;24.760;2022-12-10T12:19:31;60.10;;;26.85;;
5752;SDS011;2901;42.140;24.760;2022-12-10T12:22:04;44.20;;;24.83;;
5752;SDS011;2901;42.140;24.760;2022-12-10T12:24:38;55.45;;;26.70;;
5752;SDS011;2901;42.140;24.760;2022-12-10T12:27:14;67.25;;;28.50;;
5752;SDS011;2901;42.140;24.760;2022-12-10T12:33:08;43.83;;;23.60;;
5752;SDS011;2901;42.140;24.760;2022-12-10T12:35:51;38.08;;;22.77;;
5752;SDS011;2901;42.140;24.760;2022-12-10T12:43:55;57.13;;;25.00;;
5752;SDS011;2901;42.140;24.760;2022-12-10T12:46:35;41.15;;;23.45;;
5752;SDS011;2901;42.140;24.760;2022-12-10T12:49:20;34.83;;;23.60;;
5752;SDS011;2901;42.140;24.760;2022-12-10T12:51:58;39.80;;;24.30;;
5752;SDS011;2901;42.140;24.760;2022-12-10T12:54:27;43.92;;;25.25;;
5752;SDS011;2901;42.140;24.760;2022-12-10T13:05:36;52.22;;;26.92;;
5752;SDS011;2901;42.140;24.760;2022-12-10T13:15:52;47.30;;;29.02;;
5752;SDS011;2901;42.140;24.760;2022-12-10T13:18:19;59.70;;;28.83;;
5752;SDS011;2901;42.140;24.760;2022-12-10T13:20:48;44.22;;;27.15;;
5752;SDS011;2901;42.140;24.760;2022-12-10T13:23:30;51.42;;;27.65;;
5752;SDS011;2901;42.140;24.760;2022-12-10T13:25:59;48.58;;;28.45;;
5752;SDS011;2901;42.140;24.760;2022-12-10T13:28:27;53.78;;;29.58;;
5752;SDS011;2901;42.140;24.760;2022-12-10T13:36:20;49.22;;;29.48;;
5752;SDS011;2901;42.140;24.760;2022-12-10T13:41:27;57.53;;;30.70;;
5752;SDS011;2901;42.140;24.760;2022-12-10T13:44:33;51.63;;;31.10;;
5752;SDS011;2901;42.140;24.760;2022-12-10T13:47:22;56.70;;;29.58;;
5752;SDS011;2901;42.140;24.760;2022-12-10T13:49:57;52.33;;;30.90;;
5752;SDS011;2901;42.140;24.760;2022-12-10T13:58:48;53.83;;;30.85;;
5752;SDS011;2901;42.140;24.760;2022-12-10T14:06:54;65.57;;;32.95;;
5752;SDS011;2901;42.140;24.760;2022-12-10T14:09:30;60.92;;;32.97;;
5752;SDS011;2901;42.140;24.760;2022-12-10T14:12:01;54.30;;;31.17;;
5752;SDS011;2901;42.140;24.760;2022-12-10T14:14:39;52.40;;;30.75;;
5752;SDS011;2901;42.140;24.760;2022-12-10T14:17:20;90.05;;;33.03;;
5752;SDS011;2901;42.140;24.760;2022-12-10T14:19:49;67.45;;;32.00;;
5752;SDS011;2901;42.140;24.760;2022-12-10T14:22:19;55.05;;;31.20;;
5752;SDS011;2901;42.140;24.760;2022-12-10T14:24:53;70.88;;;31.00;;
5752;SDS011;2901;42.140;24.760;2022-12-10T14:27:24;51.05;;;30.98;;
5752;SDS011;2901;42.140;24.760;2022-12-10T14:29:53;69.18;;;34.05;;
5752;SDS011;2901;42.140;24.760;2022-12-10T14:32:33;68.03;;;33.08;;
5752;SDS011;2901;42.140;24.760;2022-12-10T14:35:01;67.38;;;34.40;;
5752;SDS011;2901;42.140;24.760;2022-12-10T14:37:30;58.83;;;33.83;;
5752;SDS011;2901;42.140;24.760;2022-12-10T14:39:58;58.40;;;35.45;;
5752;SDS011;2901;42.140;24.760;2022-12-10T14:42:24;69.22;;;35.33;;
5752;SDS011;2901;42.140;24.760;2022-12-10T14:45:02;73.18;;;37.88;;
5752;SDS011;2901;42.140;24.760;2022-12-10T14:47:36;85.90;;;46.67;;
5752;SDS011;2901;42.140;24.760;2022-12-10T14:50:04;72.32;;;36.72;;
5752;SDS011;2901;42.140;24.760;2022-12-10T14:52:38;59.28;;;35.63;;
5752;SDS011;2901;42.140;24.760;2022-12-10T14:55:15;70.82;;;37.15;;
5752;SDS011;2901;42.140;24.760;2022-12-10T15:00:44;62.97;;;35.97;;
5752;SDS011;2901;42.140;24.760;2022-12-10T15:03:11;64.65;;;38.75;;
5752;SDS011;2901;42.140;24.760;2022-12-10T15:05:53;70.45;;;36.90;;
5752;SDS011;2901;42.140;24.760;2022-12-10T15:08:20;68.93;;;37.42;;
5752;SDS011;2901;42.140;24.760;2022-12-10T15:10:49;66.90;;;38.50;;
5752;SDS011;2901;42.140;24.760;2022-12-10T15:13:21;59.47;;;35.75;;
5752;SDS011;2901;42.140;24.760;2022-12-10T15:15:49;75.40;;;39.60;;
5752;SDS011;2901;42.140;24.760;2022-12-10T15:18:18;69.72;;;37.95;;
5752;SDS011;2901;42.140;24.760;2022-12-10T15:21:16;67.00;;;39.60;;
5752;SDS011;2901;42.140;24.760;2022-12-10T15:23:45;82.90;;;49.45;;
5752;SDS011;2901;42.140;24.760;2022-12-10T15:26:21;83.07;;;42.45;;
5752;SDS011;2901;42.140;24.760;2022-12-10T15:28:50;73.05;;;42.85;;
5752;SDS011;2901;42.140;24.760;2022-12-10T15:39:25;89.18;;;45.47;;
5752;SDS011;2901;42.140;24.760;2022-12-10T15:41:54;107.70;;;45.92;;
5752;SDS011;2901;42.140;24.760;2022-12-10T15:49:43;91.20;;;48.17;;
5752;SDS011;2901;42.140;24.760;2022-12-10T15:52:12;82.57;;;44.53;;
5752;SDS011;2901;42.140;24.760;2022-12-10T15:54:40;86.85;;;44.92;;
5752;SDS011;2901;42.140;24.760;2022-12-10T15:57:14;104.70;;;49.53;;
5752;SDS011;2901;42.140;24.760;2022-12-10T15:59:43;91.75;;;46.45;;
5752;SDS011;2901;42.140;24.760;2022-12-10T16:05:12;81.00;;;41.28;;
5752;SDS011;2901;42.140;24.760;2022-12-10T16:07:46;83.90;;;41.17;;
5752;SDS011;2901;42.140;24.760;2022-12-10T16:10:13;79.90;;;38.88;;
5752;SDS011;2901;42.140;24.760;2022-12-10T16:12:40;77.20;;;40.05;;
5752;SDS011;2901;42.140;24.760;2022-12-10T16:15:07;73.35;;;42.30;;
5752;SDS011;2901;42.140;24.760;2022-12-10T16:17:36;87.72;;;41.25;;
5752;SDS011;2901;42.140;24.760;2022-12-10T16:22:55;82.90;;;40.00;;
5752;SDS011;2901;42.140;24.760;2022-12-10T16:25:22;84.38;;;40.50;;
5752;SDS011;2901;42.140;24.760;2022-12-10T16:27:49;81.03;;;41.63;;
5752;SDS011;2901;42.140;24.760;2022-12-10T16:30:23;77.38;;;39.40;;
5752;SDS011;2901;42.140;24.760;2022-12-10T16:32:52;88.80;;;39.90;;
5752;SDS011;2901;42.140;24.760;2022-12-10T16:35:20;79.20;;;41.35;;
5752;SDS011;2901;42.140;24.760;2022-12-10T16:37:46;77.82;;;41.63;;
5752;SDS011;2901;42.140;24.760;2022-12-10T16:40:15;73.85;;;41.50;;
5752;SDS011;2901;42.140;24.760;2022-12-10T16:42:41;82.97;;;43.17;;
5752;SDS011;2901;42.140;24.760;2022-12-10T16:47:38;87.45;;;44.92;;
5752;SDS011;2901;42.140;24.760;2022-12-10T16:50:04;83.30;;;45.55;;
5752;SDS011;2901;42.140;24.760;2022-12-10T16:52:29;73.82;;;41.78;;
5752;SDS011;2901;42.140;24.760;2022-12-10T16:54:55;66.78;;;40.22;;
5752;SDS011;2901;42.140;24.760;2022-12-10T16:57:20;82.80;;;44.03;;
5752;SDS011;2901;42.140;24.760;2022-12-10T16:59:46;80.65;;;44.45;;
5752;SDS011;2901;42.140;24.760;2022-12-10T17:02:20;94.03;;;43.92;;
5752;SDS011;2901;42.140;24.760;2022-12-10T17:04:45;92.05;;;51.50;;
5752;SDS011;2901;42.140;24.760;2022-12-10T17:07:11;79.63;;;46.85;;
5752;SDS011;2901;42.140;24.760;2022-12-10T17:09:37;121.57;;;62.42;;
5752;SDS011;2901;42.140;24.760;2022-12-10T17:12:03;86.10;;;48.22;;
5752;SDS011;2901;42.140;24.760;2022-12-10T17:14:34;83.95;;;46.83;;